Bryce Canyon, UT

7:21 PM MDT on August 20, 2014 (GMT -0600)
RAWS BRYCE CANYON UT US | Change Station
CLOSE
Current Station
Personal Weather Station
Location: Bryce, UT
Elevation: 7854 ft
Nearby Weather Stations
Active Advisory: Flash Flood Warning

Elev 7854 ft 37.64 °N, 112.17 °W | Updated 58 minutes ago

Clear
Clear
67 °F
Feels Like 67 °F
N
6
Wind Variable Wind from NNW
Gusts 15.0 mph

Today
High -- | Low -- °F
--% Chance of Precip.
Yesterday
High -- | Low -- °F
Precip. -- in
6:48 AM 8:14 PM
Waning Crescent, 18% visible
Pressure 29.95 in
Visibility 10.0 miles
Clouds Clear
Dew Point 43 °F
Humidity 41%
Rainfall 0.00 in
Snow Depth 3 in
UV 1 out of 12
Pollen 6.70 out of 12
Air Quality Not available.
Flu Activity Not available.
METAR KBCE 210053Z AUTO 32006KT 10SM CLR 18/07 A3023 RMK AO2 SLP142 T01780072

More Conditions Fewer Conditions

Pressure 29.95 in
Visibility 10.0 miles
Clouds Clear
Dew Point 43 °F
Humidity 41%
Rainfall 0.00 in
Snow Depth 3 in
UV 1 out of 12
Pollen 6.70 out of 12
Air Quality Not available.
Flu Activity Not available.
METAR KBCE 210053Z AUTO 32006KT 10SM CLR 18/07 A3023 RMK AO2 SLP142 T01780072

More Conditions Fewer Conditions

Nowcast | as of 7:09 PM MDT on August 20, 2014

Scattered showers and thunderstorms continue across portions of southern Utah. Strongest storms at 710 PM were over Beaver County and moving into western Kane County. Storms are moving northeast at about 15-20 mph and may produce strong gusty outflow winds...dangerous lightning...small hail and brief heavy rain.

×

10-Day Weather Forecast

Almanac

Astronomy

Aug. 20, 2014 Rise Set
Actual Time 6:48 AM MDT 8:14 PM MDT
Civil Twilight 6:21 AM MDT 8:42 PM MDT
Nautical Twilight 5:48 AM MDT 9:15 PM MDT
Astronomical Twilight 5:13 AM MDT 9:49 PM MDT
Moon 2:33 AM MDT (8/20) 5:00 PM MDT (8/20)
Length of Visible Light 14h 21m
Length of Day
13h 25m
Tomorrow will be 2m 11s shorter.
Waning Crescent, 18% of the Moon is Illuminated
Today
Waning Crescent
Aug 25
New
Sep 2
First Quarter
Sep 8
Full
Sep 15
Last Quarter

Today's Extremes

State Highs State Lows

Community

WunderPhotos

Upload Photos

1,745,840 photos uploaded!

WunderBlogs® & News

Nearby

Snow Depth

Station Depth Elevation
Agua Canyon 3 in 8900 ft
Long Valley Jct 0 in 7360 ft
Midway Valley 3 in 9800 ft
Donkey Reservoir 0 in 9800 ft
Kimberly Mine 0 in 9300 ft

Earthquake Activity

City Distance Mag. Time & Date
No recent earthquake activity has been reported nearby.
Minimum magnitude displayed is 2.5.

Coastal Water Temperatures

Place Temperature
No Stations Reporting

Nearby Weather Stations